Hawkinsville, New York
Current Conditions -  °F | °C
As of 3:53 PM on Thursday 20 Nov 2014 (Local Time) from KRME Reporting Station
Overcast Overcast  
Wind Chill: 19°   Ceiling: 9000
Heat Index: 27°   Visibility: 10mi
Dew Point: 18°   Wind: 7mph
Humidity: 69%   Direction: 240°WSW
Pressure: 29.87"   Gusts: NA
Location:  43.4691°N, 75.3509°W
Report Text: KRME 202053Z 24006KT 10SM SCT075 OVC090 M03/M08 A2987 RMK AO2 SLP118 60000 T10281078 53002
Loading
Personal Weather Stations






























Interactive Weather Map New forecast layout! Learn more

10-Day Weather Forecast

Advertisements
Track Severe Weather on mobile